This is the latest recevied weather packets stored in our database for station/object HS5GDX-4. If no packets are shown the sender has not sent any weather packets the latest 10 day(s).
| Time | Temp. | Humidity | Pressure | Rain* | Wind** | Luminosity | Snow |
|---|---|---|---|---|---|---|---|
| 1778392052 | 35.56° C | 40% | 967 hPa | - | - | 0 W/m² | - |
| 1778391122 | 35.56° C | 41% | 967 hPa | - | - | 0 W/m² | - |
| 1778390194 | 36.67° C | 41% | 968 hPa | - | - | 0 W/m² | - |
| 1778389266 | 35.56° C | 42% | 968 hPa | - | - | 0 W/m² | - |
| 1778388336 | 36.11° C | 42% | 968 hPa | - | - | 0 W/m² | - |
| 1778387408 | 35.56° C | 43% | 968 hPa | - | - | 0 W/m² | - |
| 1778386480 | 35° C | 43% | 968 hPa | - | - | 0 W/m² | - |
| 1778385550 | 35° C | 44% | 969 hPa | - | - | 0 W/m² | - |
| 1778384622 | 35° C | 45% | 969 hPa | - | - | 0 W/m² | - |
| 1778383693 | 33.89° C | 47% | 969 hPa | - | - | 0 W/m² | - |
| 1778382763 | 33.89° C | 47% | 969 hPa | - | - | 0 W/m² | - |
| 1778381836 | 33.89° C | 47% | 969 hPa | - | - | 0 W/m² | - |
| 1778380907 | 33.89° C | 48% | 969 hPa | - | - | 0 W/m² | - |
| 1778379980 | 32.78° C | 51% | 970 hPa | - | - | 0 W/m² | - |
| 1778379051 | 32.22° C | 52% | 970 hPa | - | - | 0 W/m² | - |
| 1778378123 | 31.67° C | 54% | 970 hPa | - | - | 0 W/m² | - |
| 1778377195 | 31.67° C | 53% | 969 hPa | - | - | 0 W/m² | - |
| 1778376267 | 32.22° C | 52% | 969 hPa | - | - | 0 W/m² | - |
| 1778375338 | 32.22° C | 52% | 969 hPa | - | - | 0 W/m² | - |
| 1778374408 | 31.67° C | 54% | 969 hPa | - | - | 0 W/m² | - |
| 1778373479 | 31.67° C | 53% | 969 hPa | - | - | 0 W/m² | - |
| 1778371620 | 32.78° C | 50% | 969 hPa | - | - | 0 W/m² | - |
| 1778369763 | 32.22° C | 51% | 968 hPa | - | - | 0 W/m² | - |
| 1778368834 | 32.78° C | 50% | 968 hPa | - | - | 0 W/m² | - |
| 1778366045 | 31.67° C | 52% | 967 hPa | - | - | 0 W/m² | - |
* Rain since midnight (hover to see other rain measurements)
** Current wind speed in m/s (hover to see current wind gust speed)